sensor_id;sensor_type;location;lat;lon;timestamp;temperature;humidity
15099;DHT22;33900;53.640;9.942;2023-06-22T00:01:54;21.40;81.70
15099;DHT22;33900;53.640;9.942;2023-06-22T00:04:20;21.40;81.80
15099;DHT22;33900;53.640;9.942;2023-06-22T00:06:46;21.40;81.90
15099;DHT22;33900;53.640;9.942;2023-06-22T00:09:11;21.40;82.10
15099;DHT22;33900;53.640;9.942;2023-06-22T00:11:37;21.40;82.30
15099;DHT22;33900;53.640;9.942;2023-06-22T00:14:03;21.40;82.40
15099;DHT22;33900;53.640;9.942;2023-06-22T00:16:29;21.40;82.50
15099;DHT22;33900;53.640;9.942;2023-06-22T00:18:55;21.40;82.70
15099;DHT22;33900;53.640;9.942;2023-06-22T00:21:20;21.40;82.70
15099;DHT22;33900;53.640;9.942;2023-06-22T00:23:49;21.40;82.80
15099;DHT22;33900;53.640;9.942;2023-06-22T00:26:14;21.40;82.90
15099;DHT22;33900;53.640;9.942;2023-06-22T00:28:40;21.40;82.90
15099;DHT22;33900;53.640;9.942;2023-06-22T00:31:06;21.40;83.00
15099;DHT22;33900;53.640;9.942;2023-06-22T00:33:31;21.40;83.10
15099;DHT22;33900;53.640;9.942;2023-06-22T00:35:57;21.50;83.20
15099;DHT22;33900;53.640;9.942;2023-06-22T00:38:23;21.50;83.20
15099;DHT22;33900;53.640;9.942;2023-06-22T00:40:48;21.50;83.20
15099;DHT22;33900;53.640;9.942;2023-06-22T00:43:14;21.50;83.20
15099;DHT22;33900;53.640;9.942;2023-06-22T00:45:39;21.50;83.20
15099;DHT22;33900;53.640;9.942;2023-06-22T00:48:05;21.50;83.20
15099;DHT22;33900;53.640;9.942;2023-06-22T00:50:32;21.50;83.20
15099;DHT22;33900;53.640;9.942;2023-06-22T00:53:03;21.50;83.10
15099;DHT22;33900;53.640;9.942;2023-06-22T00:56:15;21.50;83.10
15099;DHT22;33900;53.640;9.942;2023-06-22T00:58:22;21.50;83.10
15099;DHT22;33900;53.640;9.942;2023-06-22T01:00:51;21.40;83.10
15099;DHT22;33900;53.640;9.942;2023-06-22T01:03:16;21.40;83.10
15099;DHT22;33900;53.640;9.942;2023-06-22T01:05:42;21.40;83.10
15099;DHT22;33900;53.640;9.942;2023-06-22T01:08:16;21.40;83.10
15099;DHT22;33900;53.640;9.942;2023-06-22T01:11:47;21.50;83.10
15099;DHT22;33900;53.640;9.942;2023-06-22T01:13:52;21.40;83.10
15099;DHT22;33900;53.640;9.942;2023-06-22T01:18:47;21.40;83.30
15099;DHT22;33900;53.640;9.942;2023-06-22T01:21:16;21.30;83.30
15099;DHT22;33900;53.640;9.942;2023-06-22T01:23:50;21.30;83.40
15099;DHT22;33900;53.640;9.942;2023-06-22T01:29:03;21.20;83.40
15099;DHT22;33900;53.640;9.942;2023-06-22T01:31:32;21.20;83.50
15099;DHT22;33900;53.640;9.942;2023-06-22T01:34:01;21.20;83.60
15099;DHT22;33900;53.640;9.942;2023-06-22T01:36:29;21.10;83.70
15099;DHT22;33900;53.640;9.942;2023-06-22T01:39:02;21.10;83.70
15099;DHT22;33900;53.640;9.942;2023-06-22T01:41:29;21.10;83.80
15099;DHT22;33900;53.640;9.942;2023-06-22T01:43:58;21.10;83.90
15099;DHT22;33900;53.640;9.942;2023-06-22T01:46:24;21.10;84.00
15099;DHT22;33900;53.640;9.942;2023-06-22T01:48:50;21.10;84.00
15099;DHT22;33900;53.640;9.942;2023-06-22T01:51:16;21.10;84.20
15099;DHT22;33900;53.640;9.942;2023-06-22T01:53:42;21.00;84.10
15099;DHT22;33900;53.640;9.942;2023-06-22T01:56:11;20.90;84.10
15099;DHT22;33900;53.640;9.942;2023-06-22T01:58:37;20.90;84.10
15099;DHT22;33900;53.640;9.942;2023-06-22T02:01:11;20.90;84.30
15099;DHT22;33900;53.640;9.942;2023-06-22T02:03:41;20.90;84.40
15099;DHT22;33900;53.640;9.942;2023-06-22T02:06:08;20.90;84.40
15099;DHT22;33900;53.640;9.942;2023-06-22T02:08:46;20.90;84.50
15099;DHT22;33900;53.640;9.942;2023-06-22T02:11:12;20.90;84.60
15099;DHT22;33900;53.640;9.942;2023-06-22T02:13:38;20.80;84.60
15099;DHT22;33900;53.640;9.942;2023-06-22T02:16:11;20.80;84.60
15099;DHT22;33900;53.640;9.942;2023-06-22T02:18:45;20.80;84.70
15099;DHT22;33900;53.640;9.942;2023-06-22T02:21:11;20.70;84.60
15099;DHT22;33900;53.640;9.942;2023-06-22T02:23:36;20.70;84.70
15099;DHT22;33900;53.640;9.942;2023-06-22T02:26:02;20.70;84.70
15099;DHT22;33900;53.640;9.942;2023-06-22T02:28:28;20.70;84.90
15099;DHT22;33900;53.640;9.942;2023-06-22T02:30:54;20.70;85.00
15099;DHT22;33900;53.640;9.942;2023-06-22T02:33:19;20.60;85.10
15099;DHT22;33900;53.640;9.942;2023-06-22T02:35:45;20.60;85.20
15099;DHT22;33900;53.640;9.942;2023-06-22T02:38:14;20.60;85.20
15099;DHT22;33900;53.640;9.942;2023-06-22T02:40:42;20.50;85.30
15099;DHT22;33900;53.640;9.942;2023-06-22T02:43:08;20.50;85.40
15099;DHT22;33900;53.640;9.942;2023-06-22T02:45:34;20.50;85.50
15099;DHT22;33900;53.640;9.942;2023-06-22T02:48:00;20.50;85.60
15099;DHT22;33900;53.640;9.942;2023-06-22T02:50:25;20.40;85.50
15099;DHT22;33900;53.640;9.942;2023-06-22T02:52:53;20.40;85.60
15099;DHT22;33900;53.640;9.942;2023-06-22T02:55:19;20.40;85.60
15099;DHT22;33900;53.640;9.942;2023-06-22T02:57:55;20.40;85.80
15099;DHT22;33900;53.640;9.942;2023-06-22T03:00:26;20.40;85.90
15099;DHT22;33900;53.640;9.942;2023-06-22T03:02:56;20.40;86.00
15099;DHT22;33900;53.640;9.942;2023-06-22T03:05:22;20.30;86.00
15099;DHT22;33900;53.640;9.942;2023-06-22T03:07:51;20.30;86.00
15099;DHT22;33900;53.640;9.942;2023-06-22T03:10:17;20.30;86.10
15099;DHT22;33900;53.640;9.942;2023-06-22T03:12:44;20.30;86.20
15099;DHT22;33900;53.640;9.942;2023-06-22T03:15:11;20.30;86.30
15099;DHT22;33900;53.640;9.942;2023-06-22T03:17:37;20.20;86.30
15099;DHT22;33900;53.640;9.942;2023-06-22T03:20:08;20.20;86.30
15099;DHT22;33900;53.640;9.942;2023-06-22T03:22:35;20.20;86.40
15099;DHT22;33900;53.640;9.942;2023-06-22T03:25:01;20.20;86.50
15099;DHT22;33900;53.640;9.942;2023-06-22T03:27:27;20.20;86.50
15099;DHT22;33900;53.640;9.942;2023-06-22T03:29:53;20.20;86.60
15099;DHT22;33900;53.640;9.942;2023-06-22T03:32:22;20.20;86.70
15099;DHT22;33900;53.640;9.942;2023-06-22T03:34:50;20.10;86.70
15099;DHT22;33900;53.640;9.942;2023-06-22T03:37:16;20.10;86.70
15099;DHT22;33900;53.640;9.942;2023-06-22T03:39:42;20.10;86.70
15099;DHT22;33900;53.640;9.942;2023-06-22T03:42:14;20.10;86.80
15099;DHT22;33900;53.640;9.942;2023-06-22T03:44:40;20.10;86.80
15099;DHT22;33900;53.640;9.942;2023-06-22T03:47:05;20.10;86.80
15099;DHT22;33900;53.640;9.942;2023-06-22T03:49:33;20.10;86.90
15099;DHT22;33900;53.640;9.942;2023-06-22T03:52:02;20.10;86.80
15099;DHT22;33900;53.640;9.942;2023-06-22T03:54:28;20.10;86.80
15099;DHT22;33900;53.640;9.942;2023-06-22T03:56:54;20.10;86.90
15099;DHT22;33900;53.640;9.942;2023-06-22T03:59:20;20.10;86.80
15099;DHT22;33900;53.640;9.942;2023-06-22T04:01:46;20.10;86.90
15099;DHT22;33900;53.640;9.942;2023-06-22T04:04:15;20.10;86.90
15099;DHT22;33900;53.640;9.942;2023-06-22T04:06:40;20.20;86.90
15099;DHT22;33900;53.640;9.942;2023-06-22T04:09:06;20.20;86.90
15099;DHT22;33900;53.640;9.942;2023-06-22T04:11:32;20.20;86.90
15099;DHT22;33900;53.640;9.942;2023-06-22T04:13:57;20.30;86.90
15099;DHT22;33900;53.640;9.942;2023-06-22T04:16:23;20.30;86.90
15099;DHT22;33900;53.640;9.942;2023-06-22T04:18:49;20.30;86.90
15099;DHT22;33900;53.640;9.942;2023-06-22T04:21:14;20.30;87.70
15099;DHT22;33900;53.640;9.942;2023-06-22T04:23:40;20.40;87.00
15099;DHT22;33900;53.640;9.942;2023-06-22T04:26:06;20.40;87.00
15099;DHT22;33900;53.640;9.942;2023-06-22T04:28:32;20.40;87.00
15099;DHT22;33900;53.640;9.942;2023-06-22T04:31:01;20.40;87.00
15099;DHT22;33900;53.640;9.942;2023-06-22T04:33:30;20.50;87.10
15099;DHT22;33900;53.640;9.942;2023-06-22T04:35:56;20.50;87.00
15099;DHT22;33900;53.640;9.942;2023-06-22T04:38:29;20.50;87.00
15099;DHT22;33900;53.640;9.942;2023-06-22T04:40:58;20.60;87.00
15099;DHT22;33900;53.640;9.942;2023-06-22T04:43:24;20.60;87.00
15099;DHT22;33900;53.640;9.942;2023-06-22T04:45:49;20.60;86.90
15099;DHT22;33900;53.640;9.942;2023-06-22T04:48:18;20.70;87.00
15099;DHT22;33900;53.640;9.942;2023-06-22T04:50:46;20.70;86.90
15099;DHT22;33900;53.640;9.942;2023-06-22T04:53:11;20.70;86.80
15099;DHT22;33900;53.640;9.942;2023-06-22T04:55:39;20.70;86.80
15099;DHT22;33900;53.640;9.942;2023-06-22T04:58:07;20.80;86.80
15099;DHT22;33900;53.640;9.942;2023-06-22T05:00:42;20.80;86.70
15099;DHT22;33900;53.640;9.942;2023-06-22T05:03:10;20.90;86.70
15099;DHT22;33900;53.640;9.942;2023-06-22T05:05:36;20.90;86.70
15099;DHT22;33900;53.640;9.942;2023-06-22T05:08:02;20.90;86.50
15099;DHT22;33900;53.640;9.942;2023-06-22T05:10:28;20.90;86.40
15099;DHT22;33900;53.640;9.942;2023-06-22T05:12:54;20.90;86.30
15099;DHT22;33900;53.640;9.942;2023-06-22T05:15:26;21.00;86.30
15099;DHT22;33900;53.640;9.942;2023-06-22T05:17:59;21.00;86.20
15099;DHT22;33900;53.640;9.942;2023-06-22T05:20:25;21.00;86.90
15099;DHT22;33900;53.640;9.942;2023-06-22T05:22:51;21.10;86.00
15099;DHT22;33900;53.640;9.942;2023-06-22T05:25:16;21.10;85.90
15099;DHT22;33900;53.640;9.942;2023-06-22T05:27:42;21.10;85.80
15099;DHT22;33900;53.640;9.942;2023-06-22T05:30:09;21.20;85.70
15099;DHT22;33900;53.640;9.942;2023-06-22T05:32:37;21.20;85.60
15099;DHT22;33900;53.640;9.942;2023-06-22T05:35:03;21.20;85.60
15099;DHT22;33900;53.640;9.942;2023-06-22T05:37:29;21.30;85.50
15099;DHT22;33900;53.640;9.942;2023-06-22T05:39:55;21.30;85.20
15099;DHT22;33900;53.640;9.942;2023-06-22T05:42:24;21.30;85.10
15099;DHT22;33900;53.640;9.942;2023-06-22T05:44:52;21.30;85.10
15099;DHT22;33900;53.640;9.942;2023-06-22T05:47:20;21.40;85.00
15099;DHT22;33900;53.640;9.942;2023-06-22T05:49:52;21.40;84.90
15099;DHT22;33900;53.640;9.942;2023-06-22T05:52:17;21.40;84.80
15099;DHT22;33900;53.640;9.942;2023-06-22T05:54:43;21.40;84.60
15099;DHT22;33900;53.640;9.942;2023-06-22T05:57:12;21.50;84.40
15099;DHT22;33900;53.640;9.942;2023-06-22T05:59:38;21.50;84.30
15099;DHT22;33900;53.640;9.942;2023-06-22T06:02:04;21.50;84.20
15099;DHT22;33900;53.640;9.942;2023-06-22T06:04:30;21.50;84.00
15099;DHT22;33900;53.640;9.942;2023-06-22T06:06:56;21.60;83.70
15099;DHT22;33900;53.640;9.942;2023-06-22T06:09:22;21.60;83.60
15099;DHT22;33900;53.640;9.942;2023-06-22T06:11:51;21.60;83.50
15099;DHT22;33900;53.640;9.942;2023-06-22T06:14:17;21.70;83.50
15099;DHT22;33900;53.640;9.942;2023-06-22T06:16:42;21.70;83.20
15099;DHT22;33900;53.640;9.942;2023-06-22T06:19:08;21.70;82.80
15099;DHT22;33900;53.640;9.942;2023-06-22T06:21:34;21.70;82.60
15099;DHT22;33900;53.640;9.942;2023-06-22T06:24:00;21.80;82.60
15099;DHT22;33900;53.640;9.942;2023-06-22T06:26:26;21.80;82.20
15099;DHT22;33900;53.640;9.942;2023-06-22T06:28:56;21.90;82.00
15099;DHT22;33900;53.640;9.942;2023-06-22T06:31:22;21.90;81.30
15099;DHT22;33900;53.640;9.942;2023-06-22T06:33:48;21.90;81.40
15099;DHT22;33900;53.640;9.942;2023-06-22T06:36:14;21.90;81.40
15099;DHT22;33900;53.640;9.942;2023-06-22T06:38:43;21.90;81.30
15099;DHT22;33900;53.640;9.942;2023-06-22T06:41:15;22.00;81.40
15099;DHT22;33900;53.640;9.942;2023-06-22T06:43:51;22.00;81.30
15099;DHT22;33900;53.640;9.942;2023-06-22T06:46:17;22.00;81.30
15099;DHT22;33900;53.640;9.942;2023-06-22T06:48:44;22.00;81.30
15099;DHT22;33900;53.640;9.942;2023-06-22T06:51:12;22.00;81.20
15099;DHT22;33900;53.640;9.942;2023-06-22T06:53:38;22.00;81.20
15099;DHT22;33900;53.640;9.942;2023-06-22T06:56:04;22.00;81.20
15099;DHT22;33900;53.640;9.942;2023-06-22T06:58:31;22.10;81.20
15099;DHT22;33900;53.640;9.942;2023-06-22T07:00:57;22.10;81.20
15099;DHT22;33900;53.640;9.942;2023-06-22T07:03:25;22.20;81.30
15099;DHT22;33900;53.640;9.942;2023-06-22T07:05:51;22.20;81.20
15099;DHT22;33900;53.640;9.942;2023-06-22T07:08:20;22.30;81.20
15099;DHT22;33900;53.640;9.942;2023-06-22T07:10:52;22.30;81.00
15099;DHT22;33900;53.640;9.942;2023-06-22T07:13:18;22.40;81.00
15099;DHT22;33900;53.640;9.942;2023-06-22T07:15:47;22.40;80.90
15099;DHT22;33900;53.640;9.942;2023-06-22T07:18:13;22.50;80.90
15099;DHT22;33900;53.640;9.942;2023-06-22T07:20:38;22.50;80.70
15099;DHT22;33900;53.640;9.942;2023-06-22T07:23:07;22.60;80.70
15099;DHT22;33900;53.640;9.942;2023-06-22T07:25:32;22.60;80.60
15099;DHT22;33900;53.640;9.942;2023-06-22T07:28:03;22.70;80.40
15099;DHT22;33900;53.640;9.942;2023-06-22T07:30:32;22.70;80.20
15099;DHT22;33900;53.640;9.942;2023-06-22T07:33:07;22.80;81.00
15099;DHT22;33900;53.640;9.942;2023-06-22T07:35:33;22.90;80.20
15099;DHT22;33900;53.640;9.942;2023-06-22T07:38:00;23.00;80.10
15099;DHT22;33900;53.640;9.942;2023-06-22T07:40:30;23.00;80.00
15099;DHT22;33900;53.640;9.942;2023-06-22T07:42:56;23.10;79.90
15099;DHT22;33900;53.640;9.942;2023-06-22T07:45:30;23.20;79.80
15099;DHT22;33900;53.640;9.942;2023-06-22T07:47:59;23.20;79.70
15099;DHT22;33900;53.640;9.942;2023-06-22T07:50:24;23.20;79.20
15099;DHT22;33900;53.640;9.942;2023-06-22T07:52:53;23.30;79.00
15099;DHT22;33900;53.640;9.942;2023-06-22T07:55:19;23.30;78.90
15099;DHT22;33900;53.640;9.942;2023-06-22T07:57:46;23.30;79.00
15099;DHT22;33900;53.640;9.942;2023-06-22T08:00:24;23.40;78.80
15099;DHT22;33900;53.640;9.942;2023-06-22T08:02:55;23.40;78.70
15099;DHT22;33900;53.640;9.942;2023-06-22T08:05:22;23.40;78.20
15099;DHT22;33900;53.640;9.942;2023-06-22T08:07:51;23.50;78.50
15099;DHT22;33900;53.640;9.942;2023-06-22T08:10:17;23.60;78.40
15099;DHT22;33900;53.640;9.942;2023-06-22T08:12:43;23.60;78.10
15099;DHT22;33900;53.640;9.942;2023-06-22T08:15:12;23.60;78.10
15099;DHT22;33900;53.640;9.942;2023-06-22T08:17:38;23.70;78.00
15099;DHT22;33900;53.640;9.942;2023-06-22T08:20:05;23.80;77.90
15099;DHT22;33900;53.640;9.942;2023-06-22T08:22:40;23.80;78.00
15099;DHT22;33900;53.640;9.942;2023-06-22T08:25:07;23.90;77.90
15099;DHT22;33900;53.640;9.942;2023-06-22T08:27:33;24.00;77.90
15099;DHT22;33900;53.640;9.942;2023-06-22T08:30:12;24.00;77.70
15099;DHT22;33900;53.640;9.942;2023-06-22T08:32:40;24.10;77.60
15099;DHT22;33900;53.640;9.942;2023-06-22T08:35:07;24.30;76.10
15099;DHT22;33900;53.640;9.942;2023-06-22T08:37:37;24.30;75.80
15099;DHT22;33900;53.640;9.942;2023-06-22T08:40:06;24.40;75.50
15099;DHT22;33900;53.640;9.942;2023-06-22T08:42:40;24.50;75.70
15099;DHT22;33900;53.640;9.942;2023-06-22T08:45:07;24.50;75.80
15099;DHT22;33900;53.640;9.942;2023-06-22T08:47:39;24.70;75.40
15099;DHT22;33900;53.640;9.942;2023-06-22T08:50:05;24.80;75.50
15099;DHT22;33900;53.640;9.942;2023-06-22T08:52:31;24.90;75.60
15099;DHT22;33900;53.640;9.942;2023-06-22T08:55:01;25.00;75.50
15099;DHT22;33900;53.640;9.942;2023-06-22T08:57:27;25.10;75.30
15099;DHT22;33900;53.640;9.942;2023-06-22T08:59:52;25.20;74.70
15099;DHT22;33900;53.640;9.942;2023-06-22T09:02:18;25.40;74.90
15099;DHT22;33900;53.640;9.942;2023-06-22T09:04:47;25.50;74.60
15099;DHT22;33900;53.640;9.942;2023-06-22T09:07:14;25.70;74.30
15099;DHT22;33900;53.640;9.942;2023-06-22T09:09:42;25.80;74.00
15099;DHT22;33900;53.640;9.942;2023-06-22T09:12:08;25.90;73.50
15099;DHT22;33900;53.640;9.942;2023-06-22T09:14:34;26.00;73.20
15099;DHT22;33900;53.640;9.942;2023-06-22T09:17:00;26.00;72.20
15099;DHT22;33900;53.640;9.942;2023-06-22T09:19:26;26.00;71.50
15099;DHT22;33900;53.640;9.942;2023-06-22T09:21:55;26.00;71.50
15099;DHT22;33900;53.640;9.942;2023-06-22T09:24:20;26.10;71.50
15099;DHT22;33900;53.640;9.942;2023-06-22T09:26:46;26.10;70.20
15099;DHT22;33900;53.640;9.942;2023-06-22T09:29:12;26.10;70.40
15099;DHT22;33900;53.640;9.942;2023-06-22T09:31:37;26.10;70.80
15099;DHT22;33900;53.640;9.942;2023-06-22T09:34:03;26.10;71.00
15099;DHT22;33900;53.640;9.942;2023-06-22T09:36:28;26.20;71.00
15099;DHT22;33900;53.640;9.942;2023-06-22T09:38:54;26.20;71.30
15099;DHT22;33900;53.640;9.942;2023-06-22T09:41:24;26.20;71.10
15099;DHT22;33900;53.640;9.942;2023-06-22T09:43:50;26.20;70.50
15099;DHT22;33900;53.640;9.942;2023-06-22T09:46:16;26.30;71.40
15099;DHT22;33900;53.640;9.942;2023-06-22T09:48:42;26.30;70.80
15099;DHT22;33900;53.640;9.942;2023-06-22T09:51:11;26.30;70.20
15099;DHT22;33900;53.640;9.942;2023-06-22T09:53:40;26.30;70.50
15099;DHT22;33900;53.640;9.942;2023-06-22T09:56:09;26.40;70.50
15099;DHT22;33900;53.640;9.942;2023-06-22T09:58:44;26.40;70.60
15099;DHT22;33900;53.640;9.942;2023-06-22T10:01:11;26.40;70.60
15099;DHT22;33900;53.640;9.942;2023-06-22T10:03:37;26.40;70.40
15099;DHT22;33900;53.640;9.942;2023-06-22T10:06:03;26.30;70.10
15099;DHT22;33900;53.640;9.942;2023-06-22T10:08:28;26.30;70.10
15099;DHT22;33900;53.640;9.942;2023-06-22T10:10:54;26.30;70.20
15099;DHT22;33900;53.640;9.942;2023-06-22T10:13:20;26.30;70.30
15099;DHT22;33900;53.640;9.942;2023-06-22T10:15:46;26.30;70.50
15099;DHT22;33900;53.640;9.942;2023-06-22T10:18:21;26.20;70.50
15099;DHT22;33900;53.640;9.942;2023-06-22T10:20:47;26.20;70.50
15099;DHT22;33900;53.640;9.942;2023-06-22T10:23:19;26.20;70.50
15099;DHT22;33900;53.640;9.942;2023-06-22T10:28:36;26.20;69.30
15099;DHT22;33900;53.640;9.942;2023-06-22T10:31:02;26.20;69.40
15099;DHT22;33900;53.640;9.942;2023-06-22T10:33:28;26.10;69.20
15099;DHT22;33900;53.640;9.942;2023-06-22T10:35:53;26.20;69.40
15099;DHT22;33900;53.640;9.942;2023-06-22T10:38:19;26.20;69.60
15099;DHT22;33900;53.640;9.942;2023-06-22T10:40:45;26.20;69.50
15099;DHT22;33900;53.640;9.942;2023-06-22T10:43:11;26.20;68.50
15099;DHT22;33900;53.640;9.942;2023-06-22T10:45:36;26.20;68.90
15099;DHT22;33900;53.640;9.942;2023-06-22T10:48:02;26.20;68.90
15099;DHT22;33900;53.640;9.942;2023-06-22T10:50:28;26.20;68.50
15099;DHT22;33900;53.640;9.942;2023-06-22T10:53:00;26.30;68.90
15099;DHT22;33900;53.640;9.942;2023-06-22T10:55:26;26.20;69.00
15099;DHT22;33900;53.640;9.942;2023-06-22T10:57:51;26.30;69.00
15099;DHT22;33900;53.640;9.942;2023-06-22T11:00:17;26.30;69.20
15099;DHT22;33900;53.640;9.942;2023-06-22T11:02:43;26.30;69.30
15099;DHT22;33900;53.640;9.942;2023-06-22T11:05:09;26.40;70.30
15099;DHT22;33900;53.640;9.942;2023-06-22T11:07:35;26.40;69.40
15099;DHT22;33900;53.640;9.942;2023-06-22T11:10:00;26.30;68.80
15099;DHT22;33900;53.640;9.942;2023-06-22T11:12:26;26.40;68.40
15099;DHT22;33900;53.640;9.942;2023-06-22T11:14:57;26.40;68.60
15099;DHT22;33900;53.640;9.942;2023-06-22T11:17:27;26.40;68.40
15099;DHT22;33900;53.640;9.942;2023-06-22T11:19:55;26.30;68.50
15099;DHT22;33900;53.640;9.942;2023-06-22T11:22:21;26.30;68.60
15099;DHT22;33900;53.640;9.942;2023-06-22T11:24:49;26.40;68.50
15099;DHT22;33900;53.640;9.942;2023-06-22T11:27:15;26.50;68.40
15099;DHT22;33900;53.640;9.942;2023-06-22T11:29:47;26.50;68.40
15099;DHT22;33900;53.640;9.942;2023-06-22T11:32:13;26.70;67.40
15099;DHT22;33900;53.640;9.942;2023-06-22T11:34:40;26.70;67.00
15099;DHT22;33900;53.640;9.942;2023-06-22T11:37:12;26.70;67.40
15099;DHT22;33900;53.640;9.942;2023-06-22T11:39:38;26.70;66.70
15099;DHT22;33900;53.640;9.942;2023-06-22T11:42:03;26.70;66.70
15099;DHT22;33900;53.640;9.942;2023-06-22T11:44:29;26.70;67.00
15099;DHT22;33900;53.640;9.942;2023-06-22T11:47:01;26.70;67.10
15099;DHT22;33900;53.640;9.942;2023-06-22T11:49:30;26.60;67.20
15099;DHT22;33900;53.640;9.942;2023-06-22T11:51:55;26.60;66.90
15099;DHT22;33900;53.640;9.942;2023-06-22T11:54:21;26.60;66.70
15099;DHT22;33900;53.640;9.942;2023-06-22T11:56:46;26.50;66.90
15099;DHT22;33900;53.640;9.942;2023-06-22T11:59:12;26.60;67.10
15099;DHT22;33900;53.640;9.942;2023-06-22T12:01:38;26.60;66.80
15099;DHT22;33900;53.640;9.942;2023-06-22T12:04:07;26.60;66.80
15099;DHT22;33900;53.640;9.942;2023-06-22T12:06:38;26.60;66.80
15099;DHT22;33900;53.640;9.942;2023-06-22T12:09:07;26.60;66.90
15099;DHT22;33900;53.640;9.942;2023-06-22T12:11:33;26.60;66.50
15099;DHT22;33900;53.640;9.942;2023-06-22T12:14:02;26.60;66.70
15099;DHT22;33900;53.640;9.942;2023-06-22T12:16:28;26.60;66.70
15099;DHT22;33900;53.640;9.942;2023-06-22T12:18:53;26.70;66.70
15099;DHT22;33900;53.640;9.942;2023-06-22T12:21:19;26.70;66.60
15099;DHT22;33900;53.640;9.942;2023-06-22T12:23:45;26.70;66.20
15099;DHT22;33900;53.640;9.942;2023-06-22T12:26:10;26.80;66.00
15099;DHT22;33900;53.640;9.942;2023-06-22T12:28:36;26.80;65.90
15099;DHT22;33900;53.640;9.942;2023-06-22T12:31:04;26.80;65.90
15099;DHT22;33900;53.640;9.942;2023-06-22T12:33:30;26.80;65.70
15099;DHT22;33900;53.640;9.942;2023-06-22T12:35:56;26.80;66.00
15099;DHT22;33900;53.640;9.942;2023-06-22T12:38:22;26.80;65.80
15099;DHT22;33900;53.640;9.942;2023-06-22T12:40:47;26.80;65.80
15099;DHT22;33900;53.640;9.942;2023-06-22T12:43:14;26.90;65.50
15099;DHT22;33900;53.640;9.942;2023-06-22T12:45:40;26.90;65.70
15099;DHT22;33900;53.640;9.942;2023-06-22T12:48:09;26.90;65.90
15099;DHT22;33900;53.640;9.942;2023-06-22T12:50:41;26.90;65.80
15099;DHT22;33900;53.640;9.942;2023-06-22T12:53:10;26.90;65.90
15099;DHT22;33900;53.640;9.942;2023-06-22T12:55:35;26.90;65.60
15099;DHT22;33900;53.640;9.942;2023-06-22T12:58:01;27.00;65.60
15099;DHT22;33900;53.640;9.942;2023-06-22T13:00:26;27.00;65.80
15099;DHT22;33900;53.640;9.942;2023-06-22T13:02:52;27.10;65.90
15099;DHT22;33900;53.640;9.942;2023-06-22T13:05:21;27.20;65.60
15099;DHT22;33900;53.640;9.942;2023-06-22T13:07:50;27.30;65.40
15099;DHT22;33900;53.640;9.942;2023-06-22T13:10:21;27.40;64.90
15099;DHT22;33900;53.640;9.942;2023-06-22T13:12:47;27.50;65.00
15099;DHT22;33900;53.640;9.942;2023-06-22T13:15:13;27.60;63.70
15099;DHT22;33900;53.640;9.942;2023-06-22T13:17:41;27.70;63.30
15099;DHT22;33900;53.640;9.942;2023-06-22T13:20:07;27.70;62.80
15099;DHT22;33900;53.640;9.942;2023-06-22T13:22:33;27.90;62.60
15099;DHT22;33900;53.640;9.942;2023-06-22T13:25:06;27.90;62.70
15099;DHT22;33900;53.640;9.942;2023-06-22T13:27:32;28.00;63.20
15099;DHT22;33900;53.640;9.942;2023-06-22T13:30:00;28.10;63.00
15099;DHT22;33900;53.640;9.942;2023-06-22T13:32:26;28.20;62.50
15099;DHT22;33900;53.640;9.942;2023-06-22T13:34:52;28.20;61.80
15099;DHT22;33900;53.640;9.942;2023-06-22T13:37:18;28.20;60.70
15099;DHT22;33900;53.640;9.942;2023-06-22T13:39:47;28.20;60.60
15099;DHT22;33900;53.640;9.942;2023-06-22T13:42:14;28.20;60.60
15099;DHT22;33900;53.640;9.942;2023-06-22T13:44:40;28.10;61.00
15099;DHT22;33900;53.640;9.942;2023-06-22T13:47:16;28.10;61.70
15099;DHT22;33900;53.640;9.942;2023-06-22T13:49:42;28.00;61.90
15099;DHT22;33900;53.640;9.942;2023-06-22T13:52:07;28.00;62.00
15099;DHT22;33900;53.640;9.942;2023-06-22T13:54:36;28.10;62.40
15099;DHT22;33900;53.640;9.942;2023-06-22T13:57:02;28.00;62.30
15099;DHT22;33900;53.640;9.942;2023-06-22T13:59:28;28.00;62.20
15099;DHT22;33900;53.640;9.942;2023-06-22T14:01:53;28.00;62.00
15099;DHT22;33900;53.640;9.942;2023-06-22T14:04:19;28.00;62.20
15099;DHT22;33900;53.640;9.942;2023-06-22T14:06:45;28.00;62.10
15099;DHT22;33900;53.640;9.942;2023-06-22T14:09:10;28.00;62.20
15099;DHT22;33900;53.640;9.942;2023-06-22T14:11:36;27.90;61.70
15099;DHT22;33900;53.640;9.942;2023-06-22T14:14:02;27.90;62.20
15099;DHT22;33900;53.640;9.942;2023-06-22T14:16:28;27.80;61.90
15099;DHT22;33900;53.640;9.942;2023-06-22T14:18:57;27.80;62.00
15099;DHT22;33900;53.640;9.942;2023-06-22T14:21:22;27.80;62.20
15099;DHT22;33900;53.640;9.942;2023-06-22T14:23:48;27.80;62.30
15099;DHT22;33900;53.640;9.942;2023-06-22T14:26:15;27.70;62.00
15099;DHT22;33900;53.640;9.942;2023-06-22T14:28:45;27.70;62.00
15099;DHT22;33900;53.640;9.942;2023-06-22T14:31:14;27.70;62.40
15099;DHT22;33900;53.640;9.942;2023-06-22T14:33:39;27.70;62.70
15099;DHT22;33900;53.640;9.942;2023-06-22T14:36:05;27.70;62.60
15099;DHT22;33900;53.640;9.942;2023-06-22T14:38:31;27.70;62.80
15099;DHT22;33900;53.640;9.942;2023-06-22T14:40:57;27.70;63.10
15099;DHT22;33900;53.640;9.942;2023-06-22T14:43:22;27.60;63.00
15099;DHT22;33900;53.640;9.942;2023-06-22T14:45:48;27.60;62.80
15099;DHT22;33900;53.640;9.942;2023-06-22T14:48:20;27.50;62.80
15099;DHT22;33900;53.640;9.942;2023-06-22T14:50:45;27.50;63.10
15099;DHT22;33900;53.640;9.942;2023-06-22T14:53:11;27.50;63.20
15099;DHT22;33900;53.640;9.942;2023-06-22T14:55:37;27.40;63.10
15099;DHT22;33900;53.640;9.942;2023-06-22T14:58:02;27.40;63.30
15099;DHT22;33900;53.640;9.942;2023-06-22T15:00:28;27.40;63.50
15099;DHT22;33900;53.640;9.942;2023-06-22T15:02:53;27.40;63.60
15099;DHT22;33900;53.640;9.942;2023-06-22T15:05:19;27.30;63.60
15099;DHT22;33900;53.640;9.942;2023-06-22T15:07:50;27.30;63.50
15099;DHT22;33900;53.640;9.942;2023-06-22T15:10:19;27.30;63.40
15099;DHT22;33900;53.640;9.942;2023-06-22T15:12:51;27.20;63.30
15099;DHT22;33900;53.640;9.942;2023-06-22T15:15:20;27.20;63.30
15099;DHT22;33900;53.640;9.942;2023-06-22T15:17:45;27.10;63.40
15099;DHT22;33900;53.640;9.942;2023-06-22T15:20:11;27.10;63.50
15099;DHT22;33900;53.640;9.942;2023-06-22T15:22:37;27.10;63.40
15099;DHT22;33900;53.640;9.942;2023-06-22T15:25:09;27.10;64.30
15099;DHT22;33900;53.640;9.942;2023-06-22T15:27:41;27.10;63.70
15099;DHT22;33900;53.640;9.942;2023-06-22T15:30:10;27.10;63.80
15099;DHT22;33900;53.640;9.942;2023-06-22T15:32:36;27.00;63.70
15099;DHT22;33900;53.640;9.942;2023-06-22T15:35:02;26.90;63.70
15099;DHT22;33900;53.640;9.942;2023-06-22T15:37:28;26.90;63.80
15099;DHT22;33900;53.640;9.942;2023-06-22T15:39:54;26.90;64.10